Eizo Maru — JD2944 — position and weather

sailwx.info

Track history (hours):
 
Tides and Currents Weather Stations Pressure Air Temp Water Temp Dewpoint Dewpoint Depression Visibility Wind Speed Wind Dir Waves Ship Positions

Eizo Maru

Last reported at 2014-Nov-26 05:23 UTC. Time now 2014-Nov-26 06:36 UTC.
Position N 34°36' E 135°03'.

Length 80 m; draft 5.4 m.

Type: Tanker. MMSI: 431000976.

Date/timePositionNaut miles runAvg speedWind from/ knotsBaromVisibWave heightAir tempDewpointWater temp
2014-Nov-26 05:23N 34°36' E 135°03'1113.2
2014-Nov-26 04:33N 34°36' E 135°16'8 7.5
2014-Nov-26 03:27N 34°33' E 135°26'0 0.0
2014-Nov-25 22:33N 34°33' E 135°26'3 3.3
2014-Nov-25 21:31N 34°34' E 135°22'4 4.6
2014-Nov-25 20:33N 34°35' E 135°27'0 0.0
2014-Nov-24 15:22N 34°35' E 135°27'0 0.0
2014-Nov-24 13:10N 34°35' E 135°27'0 0.0
2014-Nov-24 12:28N 34°35' E 135°27'0 0.0
2014-Nov-23 23:07N 34°35' E 135°27'2 4.0
2014-Nov-23 22:33N 34°36' E 135°24'5 4.6
2014-Nov-23 21:32N 34°36' E 135°19'0 0.0
2014-Nov-23 20:32N 34°36' E 135°19'0 0.0
2014-Nov-23 19:32N 34°36' E 135°19'0 0.0
2014-Nov-23 18:32N 34°36' E 135°19'0 0.0
2014-Nov-23 17:32N 34°36' E 135°19'0 0.0
2014-Nov-23 16:32N 34°36' E 135°19'0 0.0
2014-Nov-23 15:32N 34°36' E 135°19'0 0.0
2014-Nov-23 14:32N 34°36' E 135°19'0 0.0
2014-Nov-23 13:32N 34°36' E 135°19'0 0.0
2014-Nov-23 12:32N 34°36' E 135°19'0 0.0
2014-Nov-23 11:26N 34°36' E 135°19'0 0.0
2014-Nov-23 10:26N 34°36' E 135°19'0 0.0
2014-Nov-23 09:26N 34°36' E 135°19'0 0.0
2014-Nov-23 08:32N 34°36' E 135°19'0 0.0
2014-Nov-23 07:26N 34°36' E 135°19'0 0.0
2014-Nov-23 06:32N 34°36' E 135°19'0 0.1
2014-Nov-23 05:26N 34°36' E 135°19'0 0.0
2014-Nov-23 04:26N 34°36' E 135°19'0 0.0
2014-Nov-23 02:32N 34°36' E 135°19'0 0.0
2014-Nov-23 01:20N 34°36' E 135°19'2 2.1
2014-Nov-23 00:33N 34°35' E 135°17'1413.9
2014-Nov-22 23:33N 34°24' E 135°06'1513.3
2014-Nov-22 22:25N 34°10' E 134°60'24411.1
2014-Nov-22 00:30N 35°14' E 139°46'1111.7
2014-Nov-21 23:34N 35°25' E 139°44'5 5.2
2014-Nov-21 22:32N 35°30' E 139°46'0 0.0
2014-Nov-21 21:33N 35°30' E 139°46'0 0.0
2014-Nov-21 20:24N 35°30' E 139°46'0 0.0
2014-Nov-21 19:29N 35°30' E 139°46'0 0.0
2014-Nov-21 18:33N 35°30' E 139°46'0 0.0
2014-Nov-21 17:32N 35°30' E 139°46'0 0.0
2014-Nov-21 01:09N 35°30' E 139°46'2 1.4
2014-Nov-20 23:33N 35°29' E 139°48'0 0.1
2014-Nov-20 22:29N 35°29' E 139°48'0 0.0
2014-Nov-20 21:32N 35°29' E 139°48'0 0.0
2014-Nov-20 20:26N 35°29' E 139°48'0 0.1
2014-Nov-20 19:32N 35°29' E 139°48'0 0.0
2014-Nov-20 18:26N 35°29' E 139°48'0 0.0
2014-Nov-20 17:32N 35°29' E 139°48'0 0.0
2014-Nov-20 16:29N 35°29' E 139°48'0 0.0
2014-Nov-20 15:29N 35°29' E 139°48'0 0.0
2014-Nov-20 14:32N 35°29' E 139°48'0 0.0
2014-Nov-20 13:29N 35°29' E 139°48'0 0.0
2014-Nov-20 12:32N 35°29' E 139°48'0 0.0
2014-Nov-20 11:23N 35°29' E 139°48'0 0.0
2014-Nov-20 10:29N 35°29' E 139°48'0 0.0
2014-Nov-20 09:33N 35°29' E 139°48'1111.0
2014-Nov-20 08:33N 35°18' E 139°45'  
2014-Nov-17 02:33N 35°19' E 139°43'1211.6
2014-Nov-17 01:33N 35°30' E 139°48'1 0.4
2014-Nov-16 22:04N 35°31' E 139°46'2 3.7
2014-Nov-16 21:33N 35°29' E 139°48'1 0.5
2014-Nov-16 20:30N 35°29' E 139°48'0 0.0
2014-Nov-16 19:30N 35°29' E 139°48'0 0.0
2014-Nov-16 18:24N 35°29' E 139°48'0 0.0
2014-Nov-16 17:33N 35°29' E 139°48'0 0.0
2014-Nov-16 16:33N 35°29' E 139°48'0 0.0
2014-Nov-16 15:24N 35°29' E 139°48'0 0.0
2014-Nov-16 14:33N 35°29' E 139°48'9 9.0
2014-Nov-16 13:33N 35°20' E 139°45'  
Track history (hours):
 
Tides and Currents Weather Stations Pressure Air Temp Water Temp Dewpoint Dewpoint Depression Visibility Wind Speed Wind Dir Waves Ship Positions

Eizo Maru

Last reported at 2014-Nov-26 05:23 UTC. Time now 2014-Nov-26 06:36 UTC.
Position N 34°36' E 135°03'.

Length 80 m; draft 5.4 m.

Type: Tanker. MMSI: 431000976.

Date/timePositionNaut miles runAvg speedWind from/ knotsBaromVisibWave heightAir tempDewpointWater temp
2014-Nov-26 05:23N 34°36' E 135°03'1113.2
2014-Nov-26 04:33N 34°36' E 135°16'8 7.5
2014-Nov-26 03:27N 34°33' E 135°26'0 0.0
2014-Nov-25 22:33N 34°33' E 135°26'3 3.3
2014-Nov-25 21:31N 34°34' E 135°22'4 4.6
2014-Nov-25 20:33N 34°35' E 135°27'0 0.0
2014-Nov-24 15:22N 34°35' E 135°27'0 0.0
2014-Nov-24 13:10N 34°35' E 135°27'0 0.0
2014-Nov-24 12:28N 34°35' E 135°27'0 0.0
2014-Nov-23 23:07N 34°35' E 135°27'2 4.0
2014-Nov-23 22:33N 34°36' E 135°24'5 4.6
2014-Nov-23 21:32N 34°36' E 135°19'0 0.0
2014-Nov-23 20:32N 34°36' E 135°19'0 0.0
2014-Nov-23 19:32N 34°36' E 135°19'0 0.0
2014-Nov-23 18:32N 34°36' E 135°19'0 0.0
2014-Nov-23 17:32N 34°36' E 135°19'0 0.0
2014-Nov-23 16:32N 34°36' E 135°19'0 0.0
2014-Nov-23 15:32N 34°36' E 135°19'0 0.0
2014-Nov-23 14:32N 34°36' E 135°19'0 0.0
2014-Nov-23 13:32N 34°36' E 135°19'0 0.0
2014-Nov-23 12:32N 34°36' E 135°19'0 0.0
2014-Nov-23 11:26N 34°36' E 135°19'0 0.0
2014-Nov-23 10:26N 34°36' E 135°19'0 0.0
2014-Nov-23 09:26N 34°36' E 135°19'0 0.0
2014-Nov-23 08:32N 34°36' E 135°19'0 0.0
2014-Nov-23 07:26N 34°36' E 135°19'0 0.0
2014-Nov-23 06:32N 34°36' E 135°19'0 0.1
2014-Nov-23 05:26N 34°36' E 135°19'0 0.0
2014-Nov-23 04:26N 34°36' E 135°19'0 0.0
2014-Nov-23 02:32N 34°36' E 135°19'0 0.0
2014-Nov-23 01:20N 34°36' E 135°19'2 2.1
2014-Nov-23 00:33N 34°35' E 135°17'1413.9
2014-Nov-22 23:33N 34°24' E 135°06'1513.3
2014-Nov-22 22:25N 34°10' E 134°60'24411.1
2014-Nov-22 00:30N 35°14' E 139°46'1111.7
2014-Nov-21 23:34N 35°25' E 139°44'5 5.2
2014-Nov-21 22:32N 35°30' E 139°46'0 0.0
2014-Nov-21 21:33N 35°30' E 139°46'0 0.0
2014-Nov-21 20:24N 35°30' E 139°46'0 0.0
2014-Nov-21 19:29N 35°30' E 139°46'0 0.0
2014-Nov-21 18:33N 35°30' E 139°46'0 0.0
2014-Nov-21 17:32N 35°30' E 139°46'0 0.0
2014-Nov-21 01:09N 35°30' E 139°46'2 1.4
2014-Nov-20 23:33N 35°29' E 139°48'0 0.1
2014-Nov-20 22:29N 35°29' E 139°48'0 0.0
2014-Nov-20 21:32N 35°29' E 139°48'0 0.0
2014-Nov-20 20:26N 35°29' E 139°48'0 0.1
2014-Nov-20 19:32N 35°29' E 139°48'0 0.0
2014-Nov-20 18:26N 35°29' E 139°48'0 0.0
2014-Nov-20 17:32N 35°29' E 139°48'0 0.0
2014-Nov-20 16:29N 35°29' E 139°48'0 0.0
2014-Nov-20 15:29N 35°29' E 139°48'0 0.0
2014-Nov-20 14:32N 35°29' E 139°48'0 0.0
2014-Nov-20 13:29N 35°29' E 139°48'0 0.0
2014-Nov-20 12:32N 35°29' E 139°48'0 0.0
2014-Nov-20 11:23N 35°29' E 139°48'0 0.0
2014-Nov-20 10:29N 35°29' E 139°48'0 0.0
2014-Nov-20 09:33N 35°29' E 139°48'1111.0
2014-Nov-20 08:33N 35°18' E 139°45'  
2014-Nov-17 02:33N 35°19' E 139°43'1211.6
2014-Nov-17 01:33N 35°30' E 139°48'1 0.4
2014-Nov-16 22:04N 35°31' E 139°46'2 3.7
2014-Nov-16 21:33N 35°29' E 139°48'1 0.5
2014-Nov-16 20:30N 35°29' E 139°48'0 0.0
2014-Nov-16 19:30N 35°29' E 139°48'0 0.0
2014-Nov-16 18:24N 35°29' E 139°48'0 0.0
2014-Nov-16 17:33N 35°29' E 139°48'0 0.0
2014-Nov-16 16:33N 35°29' E 139°48'0 0.0
2014-Nov-16 15:24N 35°29' E 139°48'0 0.0
2014-Nov-16 14:33N 35°29' E 139°48'9 9.0
2014-Nov-16 13:33N 35°20' E 139°45'  

Dump ship's entire track history